createdAt,value
2022-12-22T06:31:52.857Z,3.92
2022-12-22T06:34:20.114Z,3.85
2022-12-22T06:36:48.152Z,3.55
2022-12-22T06:39:17.145Z,9.60
2022-12-22T06:42:04.278Z,6.00
2022-12-22T06:44:31.885Z,1.40
2022-12-22T06:46:59.117Z,3.95
2022-12-22T06:49:26.304Z,2.78
2022-12-22T06:51:53.609Z,5.47
2022-12-22T06:54:25.843Z,6.00
2022-12-22T06:56:53.715Z,7.32
2022-12-22T06:59:20.844Z,7.00
2022-12-22T07:01:48.283Z,3.08
2022-12-22T07:04:19.848Z,4.18
2022-12-22T07:06:48.512Z,7.10
2022-12-22T07:09:15.777Z,4.88
2022-12-22T07:11:42.938Z,11.07
2022-12-22T07:14:11.444Z,6.45
2022-12-22T07:16:38.730Z,6.47
2022-12-22T07:19:06.007Z,9.93
2022-12-22T07:21:33.249Z,6.60
2022-12-22T07:24:00.466Z,7.20
2022-12-22T07:26:27.947Z,10.57
2022-12-22T07:28:55.150Z,14.75
2022-12-22T07:31:23.664Z,15.35
2022-12-22T07:33:51.994Z,4.00
2022-12-22T07:36:20.530Z,17.67
2022-12-22T07:38:49.857Z,8.00
2022-12-22T07:41:39.505Z,5.75
2022-12-22T07:44:07.092Z,3.33
2022-12-22T07:46:37.093Z,8.80
2022-12-22T07:49:25.972Z,9.35
2022-12-22T07:51:55.826Z,14.52
2022-12-22T07:54:23.419Z,8.00
2022-12-22T07:56:50.776Z,15.88
2022-12-22T07:59:18.006Z,8.73
2022-12-22T08:01:45.998Z,10.52
2022-12-22T08:04:14.763Z,9.27
2022-12-22T08:06:42.328Z,9.68
2022-12-22T08:09:13.293Z,11.65
2022-12-22T08:11:40.478Z,7.88
2022-12-22T08:14:08.264Z,11.30
2022-12-22T08:16:35.487Z,6.20
2022-12-22T08:19:02.709Z,5.18
2022-12-22T08:21:30.041Z,6.38
2022-12-22T08:23:57.204Z,10.30
2022-12-22T08:26:33.673Z,6.85
2022-12-22T08:29:07.876Z,10.48
2022-12-22T08:31:35.465Z,8.05
2022-12-22T08:34:06.050Z,9.07
2022-12-22T08:36:36.915Z,5.30
2022-12-22T08:39:04.763Z,14.10
2022-12-22T08:41:53.025Z,7.32
2022-12-22T08:44:24.433Z,9.40
2022-12-22T08:46:53.162Z,7.15
2022-12-22T08:49:20.623Z,6.82
2022-12-22T08:51:48.026Z,7.38
2022-12-22T08:54:16.011Z,8.68
2022-12-22T08:56:43.777Z,14.00
2022-12-22T08:59:11.445Z,10.65
2022-12-22T09:01:46.823Z,8.40
2022-12-22T09:04:15.779Z,7.30
2022-12-22T09:06:43.199Z,6.63
2022-12-22T09:09:12.426Z,9.07
2022-12-22T09:11:40.346Z,7.05
2022-12-22T09:14:09.720Z,6.43
2022-12-22T09:16:37.298Z,4.53
2022-12-22T09:19:06.371Z,4.57
2022-12-22T09:21:34.194Z,5.40
2022-12-22T09:24:01.414Z,7.63
2022-12-22T09:26:29.131Z,8.18
2022-12-22T09:28:56.704Z,4.18
2022-12-22T09:31:26.321Z,5.78
2022-12-22T09:33:54.159Z,6.43
2022-12-22T09:36:26.129Z,5.47
2022-12-22T09:38:53.313Z,4.68
2022-12-22T09:41:29.017Z,7.03
2022-12-22T09:43:56.712Z,6.65
2022-12-22T09:46:27.027Z,2.22
2022-12-22T09:48:55.129Z,3.00
2022-12-22T09:51:27.214Z,6.68
2022-12-22T09:53:58.913Z,9.35
2022-12-22T09:56:28.582Z,8.98
2022-12-22T09:58:56.710Z,3.20
2022-12-22T10:01:57.017Z,1.48
2022-12-22T10:04:51.150Z,3.58
2022-12-22T10:07:32.628Z,4.18
2022-12-22T10:10:15.813Z,6.45
2022-12-22T10:12:43.034Z,7.00
2022-12-22T10:15:15.444Z,10.45
2022-12-22T10:17:45.875Z,6.15
2022-12-22T10:20:29.670Z,5.05
2022-12-22T10:23:00.809Z,4.63
2022-12-22T10:26:26.331Z,5.65
2022-12-22T10:28:29.138Z,9.02
2022-12-22T10:31:18.945Z,4.63
2022-12-22T10:33:48.696Z,2.05
2022-12-22T10:36:23.352Z,4.35
2022-12-22T10:38:58.789Z,4.03
2022-12-22T10:41:30.668Z,4.03
2022-12-22T10:44:01.645Z,6.93
2022-12-22T10:46:37.158Z,3.17
2022-12-22T10:49:28.069Z,3.08
2022-12-22T10:54:36.228Z,2.65
2022-12-22T10:57:20.783Z,3.67
2022-12-22T10:59:57.986Z,2.90
2022-12-22T11:02:30.082Z,5.78
2022-12-22T11:05:08.047Z,3.17
2022-12-22T11:07:40.023Z,2.95
2022-12-22T11:10:18.561Z,2.88
2022-12-22T11:13:25.546Z,4.07
2022-12-22T11:16:17.189Z,5.88
2022-12-22T11:19:24.228Z,3.08
2022-12-22T11:22:18.123Z,2.35
2022-12-22T11:28:13.551Z,3.28
2022-12-22T11:31:09.192Z,4.72
2022-12-22T11:34:02.187Z,1.33
2022-12-22T11:36:59.446Z,3.45
2022-12-22T11:39:57.530Z,8.13
2022-12-22T11:42:47.476Z,2.70
2022-12-22T11:45:53.515Z,1.83
2022-12-22T11:49:00.659Z,4.90
2022-12-22T11:51:46.385Z,5.13
2022-12-22T11:54:42.761Z,2.13
2022-12-22T11:57:34.542Z,3.60
2022-12-22T12:00:13.754Z,3.78
2022-12-22T12:03:09.921Z,6.93
2022-12-22T12:06:07.127Z,5.40
2022-12-22T12:08:52.131Z,5.25
2022-12-22T12:11:33.010Z,4.72
2022-12-22T12:14:24.719Z,2.20
2022-12-22T12:17:00.123Z,5.38
2022-12-22T12:19:57.372Z,9.55
2022-12-22T12:25:38.867Z,2.88
2022-12-22T12:28:20.263Z,9.57
2022-12-22T12:30:55.835Z,6.03
2022-12-22T12:33:39.083Z,10.77
2022-12-22T12:42:19.583Z,3.28
2022-12-22T12:44:47.544Z,14.02
2022-12-22T12:47:35.244Z,5.75
2022-12-22T12:58:03.819Z,5.88
2022-12-22T13:06:10.572Z,3.80
2022-12-22T13:09:40.284Z,9.10
2022-12-22T13:12:34.745Z,3.88
2022-12-22T13:15:02.274Z,11.68
2022-12-22T13:17:47.755Z,5.03
2022-12-22T13:20:19.195Z,2.22
2022-12-22T13:22:51.517Z,7.63
2022-12-22T13:25:19.117Z,10.18
2022-12-22T13:27:46.631Z,4.50
2022-12-22T13:30:19.555Z,4.72
2022-12-22T13:32:49.689Z,9.60
2022-12-22T13:35:47.124Z,3.85
2022-12-22T13:38:36.680Z,4.53
2022-12-22T13:41:14.777Z,9.20
2022-12-22T13:43:47.332Z,8.07
2022-12-22T13:46:14.797Z,11.40
2022-12-22T13:48:45.582Z,11.23
2022-12-22T13:51:25.223Z,11.85
2022-12-22T13:54:08.315Z,8.23
2022-12-22T13:56:40.992Z,10.63
2022-12-22T13:59:30.900Z,12.03
2022-12-22T14:02:16.317Z,12.98
2022-12-22T14:05:03.759Z,17.02
2022-12-22T14:07:31.592Z,15.52
2022-12-22T14:09:58.954Z,12.15
2022-12-22T14:12:32.467Z,8.20
2022-12-22T14:15:01.936Z,6.97
2022-12-22T14:17:32.067Z,18.50
2022-12-22T14:20:01.405Z,20.58
2022-12-22T14:22:34.423Z,11.52
2022-12-22T14:27:38.484Z,23.65
2022-12-22T14:30:30.983Z,19.58
2022-12-22T14:36:23.676Z,15.90
2022-12-22T14:38:56.584Z,23.20
2022-12-22T14:41:44.121Z,18.88
2022-12-22T14:44:16.526Z,13.27
2022-12-22T14:46:45.584Z,14.90
2022-12-22T14:49:15.822Z,10.10
2022-12-22T14:51:43.392Z,15.68
2022-12-22T14:54:20.996Z,11.63
2022-12-22T14:56:50.694Z,11.60
2022-12-22T14:59:25.972Z,24.63
2022-12-22T15:01:58.887Z,22.25
2022-12-22T15:04:27.168Z,21.25
2022-12-22T15:07:06.148Z,10.40
2022-12-22T15:10:13.044Z,12.77
2022-12-22T15:12:20.666Z,19.73
2022-12-22T15:14:49.074Z,14.35
2022-12-22T15:17:22.130Z,14.38
2022-12-22T15:19:50.709Z,28.60
2022-12-22T15:22:17.873Z,29.30
2022-12-22T15:24:45.092Z,11.40
2022-12-22T15:27:12.236Z,10.40
2022-12-22T15:29:39.391Z,26.73
2022-12-22T15:32:11.937Z,15.50
2022-12-22T15:34:39.849Z,12.85
2022-12-22T15:37:07.171Z,10.38
2022-12-22T15:39:34.271Z,16.10
2022-12-22T15:42:01.397Z,19.30
2022-12-22T15:44:31.092Z,20.92
2022-12-22T15:47:02.340Z,20.10
2022-12-22T15:49:31.985Z,13.73
2022-12-22T15:52:02.604Z,9.63
2022-12-22T15:54:33.182Z,16.45
2022-12-22T15:57:01.468Z,10.98
2022-12-22T15:59:29.741Z,9.90
2022-12-22T16:02:01.372Z,9.52
2022-12-22T16:04:30.056Z,15.85
2022-12-22T16:06:59.459Z,15.93
2022-12-22T16:09:32.684Z,14.93
2022-12-22T16:12:00.090Z,19.02
2022-12-22T16:14:27.495Z,22.83
2022-12-22T16:16:54.962Z,19.52
2022-12-22T16:19:22.166Z,22.20
2022-12-22T16:21:52.890Z,17.23
2022-12-22T16:24:27.789Z,21.27
2022-12-22T16:26:56.989Z,23.63
2022-12-22T16:29:25.176Z,14.02
2022-12-22T16:31:53.155Z,17.00
2022-12-22T16:34:20.520Z,26.50
2022-12-22T16:36:47.688Z,17.35
2022-12-22T16:39:14.900Z,16.17
2022-12-22T16:41:44.260Z,18.88
2022-12-22T16:44:20.053Z,22.25
2022-12-22T16:46:47.381Z,20.13
2022-12-22T16:49:24.549Z,20.52
2022-12-22T16:51:54.683Z,19.48
2022-12-22T16:54:21.883Z,14.23
2022-12-22T16:56:51.830Z,19.23
2022-12-22T16:59:19.064Z,21.10
